• Join FlightAware (Why Join?)
  • Login
  • US Flag 
05:59PM EST


 

Airport Tracker/Info


-or-


 

Live Flight TrackerFlight Track Log ✈ N1560T ✈ 05-Sep-2013 ✈ KFCM - KLSE

Flight Track Log - Related Links

Times and Time Zones

All times are in EDT time to prevent confusion due to time zone crossing. See the N1560T flight status page for this flight to view local times or setup timezone preferences in your user account.

Time Position Orientation Groundspeed Altitude Reporting Facility
EDT Latitude Longitude Course Direction KTS MPH feet Rate Location/Type
04:33PM 44.8000 -93.4167 180° South 153 176 2,400  Level Minneapolis TRACON
04:34PM 44.7667 -93.4167 180° South 174 200 3,000 300 Climbing Minneapolis TRACON
04:35PM 44.7167 -93.3833 155° Southeast 184 212 3,000  Level Minneapolis TRACON
04:35PM 44.7019 -93.3592 131° Southeast 182 209 3,000 420 Level Minneapolis Center
04:37PM 44.6658 -93.3053 133° Southeast 158 182 3,800 420 Climbing Minneapolis Center
04:38PM 44.6292 -93.2425 129° Southeast 179 206 4,000 60 Climbing Minneapolis Center
04:39PM 44.6039 -93.1722 117° Southeast 204 235 4,000  Level Minneapolis Center
04:40PM 44.5786 -93.1022 117° Southeast 203 234 4,000 60 Level Minneapolis Center
04:41PM 44.5533 -93.0308 116° Southeast 205 236 4,200 900 Climbing Minneapolis Center
04:42PM 44.5303 -92.9703 118° Southeast 181 208 5,900 1,320 Climbing Minneapolis Center
04:43PM 44.5036 -92.8969 117° Southeast 179 206 7,000 480 Climbing Minneapolis Center
04:44PM 44.4747 -92.8203 118° Southeast 221 254 7,000  Level Minneapolis Center
04:45PM 44.4458 -92.7406 117° Southeast 229 264 7,000 -60 Level Minneapolis Center
04:46PM 44.4167 -92.6606 117° Southeast 231 266 6,900  Descending Minneapolis Center
04:47PM 44.3867 -92.5831 118° Southeast 228 262 7,000  Climbing Minneapolis Center
04:48PM 44.3575 -92.5044 117° Southeast 228 262 7,000  Level Minneapolis Center
04:49PM 44.3206 -92.4103 119° Southeast 230 265 7,000  Level Minneapolis Center
04:50PM 44.2919 -92.3325 117° Southeast 228 262 7,100  Climbing Minneapolis Center
04:51PM 44.2608 -92.2478 117° Southeast 230 265 7,100  Level Minneapolis Center
04:52PM 44.2308 -92.1700 118° Southeast 230 265 7,100  Level Minneapolis Center
04:53PM 44.1986 -92.0850 118° Southeast 231 266 7,100  Level Minneapolis Center
04:54PM 44.1689 -92.0061 118° Southeast 232 267 7,100 -60 Level Minneapolis Center
04:56PM 44.1364 -91.9211 118° Southeast 233 268 7,000 -240 Descending Minneapolis Center
04:57PM 44.0983 -91.8217 118° Southeast 235 270 6,600 -720 Descending Minneapolis Center
04:58PM 44.0664 -91.7397 118° Southeast 242 278 5,600 -1,020 Descending Minneapolis Center
04:59PM 44.0336 -91.6539 118° Southeast 231 266 4,600 -780 Descending Minneapolis Center
05:00PM 44.0053 -91.5803 118° Southeast 226 260 4,000 -300 Descending Minneapolis Center
05:01PM 43.9786 -91.5114 118° Southeast 196 226 4,000 -300 Level Minneapolis Center
05:02PM 43.9550 -91.4408 115° Southeast 195 224 3,400 -720 Descending Minneapolis Center
05:03PM 43.9414 -91.3650 104° East 195 224 2,600 -780 Descending Minneapolis Center
05:05PM 43.8793 -91.2566 109° East  Level Estimated